Time;durP1;ratioP1;P1;durP2;ratioP2;P2;SDS_P1;SDS_P2;PMS_P1;PMS_P2;Temp;Humidity;BMP_temperature;BMP_pressure;BME280_temperature;BME280_humidity;BME280_pressure;Samples;Min_cycle;Max_cycle;Signal;HPM_P1;HPM_P2
2023/11/24 00:02:21;;;;;;;1.17;0.60;;;3.90;99.90;;;;;;5055124;28;20040;-60
2023/11/24 00:04:48;;;;;;;2.55;0.80;;;4.00;99.90;;;;;;5052503;28;20057;-63
2023/11/24 00:07:17;;;;;;;5.78;0.73;;;4.00;99.90;;;;;;5049603;28;20037;-61
2023/11/24 00:09:44;;;;;;;3.10;1.27;;;4.00;99.90;;;;;;5056502;28;20048;-64
2023/11/24 00:12:11;;;;;;;2.95;0.93;;;4.00;99.90;;;;;;5058176;28;20435;-61
2023/11/24 00:14:38;;;;;;;2.15;0.38;;;3.90;99.90;;;;;;5058954;28;20051;-61
2023/11/24 00:17:06;;;;;;;2.00;0.40;;;3.90;99.90;;;;;;5034825;28;20048;-61
2023/11/24 00:19:33;;;;;;;0.98;0.50;;;3.90;99.90;;;;;;5062070;28;20045;-62
2023/11/24 00:21:59;;;;;;;2.35;0.57;;;3.90;99.90;;;;;;5052661;28;20052;-62
2023/11/24 00:24:27;;;;;;;2.80;0.45;;;3.90;99.90;;;;;;5053140;28;20049;-63
2023/11/24 00:26:55;;;;;;;3.78;0.70;;;3.90;99.90;;;;;;5055195;28;20419;-61
2023/11/24 00:29:22;;;;;;;1.50;0.60;;;3.90;99.90;;;;;;5053661;28;20167;-62
2023/11/24 00:31:48;;;;;;;3.17;0.90;;;3.80;99.90;;;;;;5051549;28;20096;-61
2023/11/24 00:34:15;;;;;;;1.48;1.00;;;3.90;99.90;;;;;;5054097;28;20044;-62
2023/11/24 00:36:43;;;;;;;2.90;0.68;;;3.90;99.90;;;;;;5054110;28;20051;-62
2023/11/24 00:39:10;;;;;;;2.25;1.00;;;3.90;99.90;;;;;;5047752;28;20072;-61
2023/11/24 00:41:37;;;;;;;1.80;0.88;;;3.80;99.90;;;;;;5055156;28;20043;-60
2023/11/24 00:44:04;;;;;;;3.03;1.00;;;3.80;99.90;;;;;;5054776;28;20123;-60
2023/11/24 00:46:31;;;;;;;5.10;0.95;;;3.70;99.90;;;;;;5057565;28;20053;-61
2023/11/24 00:48:58;;;;;;;2.03;0.50;;;3.70;99.90;;;;;;5036365;28;20049;-63
2023/11/24 00:51:25;;;;;;;3.83;0.50;;;3.70;99.90;;;;;;5051025;28;20056;-61
2023/11/24 00:53:53;;;;;;;4.45;1.48;;;3.70;99.90;;;;;;5051356;28;20041;-60
2023/11/24 00:56:19;;;;;;;3.33;0.75;;;3.70;99.90;;;;;;5048611;28;20103;-61
2023/11/24 00:58:46;;;;;;;4.22;0.60;;;3.70;99.90;;;;;;5070962;28;20045;-61
2023/11/24 01:01:13;;;;;;;1.90;0.57;;;3.70;99.90;;;;;;5040353;28;20041;-62
2023/11/24 01:03:41;;;;;;;2.00;1.45;;;3.70;99.90;;;;;;5043372;28;20038;-61
2023/11/24 01:06:08;;;;;;;2.47;0.63;;;3.70;99.90;;;;;;5060150;28;20048;-61
2023/11/24 01:08:35;;;;;;;1.70;0.55;;;3.70;99.90;;;;;;5050378;28;20041;-62
2023/11/24 01:11:02;;;;;;;5.03;0.70;;;3.60;99.90;;;;;;5065367;28;20119;-64
2023/11/24 01:13:32;;;;;;;3.58;2.05;;;3.60;99.90;;;;;;5053745;28;20049;-61
2023/11/24 01:16:00;;;;;;;2.63;0.70;;;3.60;99.90;;;;;;5032745;28;20045;-60
2023/11/24 01:18:27;;;;;;;3.45;1.42;;;3.60;99.90;;;;;;5067908;28;20049;-60
2023/11/24 01:20:55;;;;;;;1.63;0.70;;;3.60;99.90;;;;;;5052137;28;20612;-65
2023/11/24 01:23:22;;;;;;;3.53;1.13;;;3.50;99.90;;;;;;5032855;28;20519;-61
2023/11/24 01:25:49;;;;;;;6.63;1.10;;;3.50;99.90;;;;;;5057068;28;20072;-61
2023/11/24 01:28:15;;;;;;;3.88;1.77;;;3.50;99.90;;;;;;5053815;28;20111;-60
2023/11/24 01:30:43;;;;;;;3.92;1.08;;;3.50;99.90;;;;;;5045407;28;20396;-60
2023/11/24 01:33:10;;;;;;;4.40;1.45;;;3.50;99.90;;;;;;5056421;28;20048;-61
2023/11/24 01:35:37;;;;;;;5.10;1.65;;;3.40;99.90;;;;;;5049016;28;20048;-64
2023/11/24 01:38:04;;;;;;;2.13;0.75;;;3.40;99.90;;;;;;5039140;28;20044;-63
2023/11/24 01:40:34;;;;;;;6.68;0.77;;;3.40;99.90;;;;;;5050059;28;20454;-60
2023/11/24 01:43:01;;;;;;;1.75;1.45;;;3.40;99.90;;;;;;5047803;28;20043;-62
2023/11/24 01:45:28;;;;;;;6.25;0.73;;;3.40;99.90;;;;;;5048963;28;20538;-61
2023/11/24 01:47:56;;;;;;;5.55;0.90;;;3.40;99.90;;;;;;5050813;28;20051;-61
2023/11/24 01:50:24;;;;;;;3.45;0.57;;;3.40;99.90;;;;;;5040533;28;20053;-61
2023/11/24 01:52:51;;;;;;;3.42;1.05;;;3.30;99.90;;;;;;5056423;28;20060;-69
2023/11/24 01:55:19;;;;;;;4.68;1.20;;;3.30;99.90;;;;;;5022726;28;20399;-64
2023/11/24 01:57:48;;;;;;;4.82;1.00;;;3.30;99.90;;;;;;5058931;28;20064;-61
2023/11/24 02:00:15;;;;;;;4.32;1.75;;;3.30;99.90;;;;;;5030996;28;20083;-62
2023/11/24 02:02:43;;;;;;;3.55;1.40;;;3.30;99.90;;;;;;5057839;28;20045;-61
2023/11/24 02:05:14;;;;;;;2.63;0.80;;;3.30;99.90;;;;;;5033433;28;20143;-60
2023/11/24 02:07:42;;;;;;;4.85;0.70;;;3.30;99.90;;;;;;5051233;28;20041;-61
2023/11/24 02:10:14;;;;;;;3.05;2.10;;;3.30;99.90;;;;;;5048048;28;20123;-60
2023/11/24 02:12:41;;;;;;;1.52;0.50;;;3.30;99.90;;;;;;5052248;28;20049;-60
2023/11/24 02:15:09;;;;;;;4.38;1.10;;;3.30;99.90;;;;;;5030184;28;20535;-63
2023/11/24 02:17:36;;;;;;;3.72;0.93;;;3.30;99.90;;;;;;5066360;28;20509;-61
2023/11/24 02:20:10;;;;;;;4.40;0.98;;;3.30;99.90;;;;;;5067740;28;20051;-60
2023/11/24 02:22:43;;;;;;;4.97;1.30;;;3.30;99.90;;;;;;5027639;28;20052;-60
2023/11/24 02:25:11;;;;;;;3.30;0.77;;;3.30;99.90;;;;;;5051793;28;20047;-61
2023/11/24 02:27:38;;;;;;;1.75;1.13;;;3.20;99.90;;;;;;5034705;28;20064;-63
2023/11/24 02:30:06;;;;;;;3.42;1.15;;;3.20;99.90;;;;;;5053648;28;20079;-64
2023/11/24 02:32:33;;;;;;;6.90;0.90;;;3.20;99.90;;;;;;5033028;28;20059;-60
2023/11/24 02:35:02;;;;;;;3.55;0.70;;;3.20;99.90;;;;;;5036728;28;20110;-61
2023/11/24 02:37:29;;;;;;;5.25;1.23;;;3.20;99.90;;;;;;5052491;28;20041;-60
2023/11/24 02:39:56;;;;;;;6.53;0.75;;;3.20;99.90;;;;;;5031600;28;20079;-63
2023/11/24 02:42:24;;;;;;;2.88;0.75;;;3.20;99.90;;;;;;5050897;28;20131;-61
2023/11/24 02:44:51;;;;;;;3.50;1.33;;;3.20;99.90;;;;;;5031647;28;20076;-63
2023/11/24 02:47:18;;;;;;;2.75;1.30;;;3.20;99.90;;;;;;5050732;28;20075;-60
2023/11/24 02:49:45;;;;;;;4.15;0.73;;;3.20;99.90;;;;;;5049405;28;20064;-62
2023/11/24 02:52:12;;;;;;;3.90;1.00;;;3.20;99.90;;;;;;5053315;28;20098;-61
2023/11/24 02:54:39;;;;;;;3.30;0.82;;;3.10;99.90;;;;;;5054861;28;20133;-61
2023/11/24 02:57:06;;;;;;;1.38;0.68;;;3.20;99.90;;;;;;5054571;28;20041;-65
2023/11/24 02:59:34;;;;;;;2.78;1.17;;;3.20;99.90;;;;;;5031771;28;20095;-60
2023/11/24 03:02:01;;;;;;;2.58;0.65;;;3.20;99.90;;;;;;5053011;28;20406;-60
2023/11/24 03:04:28;;;;;;;5.45;1.40;;;3.30;99.90;;;;;;5042904;28;20064;-62
2023/11/24 03:06:55;;;;;;;0.85;0.50;;;3.20;99.90;;;;;;5047236;28;20588;-61
2023/11/24 03:09:23;;;;;;;3.50;1.77;;;3.20;99.90;;;;;;5026325;28;20442;-63
2023/11/24 03:11:52;;;;;;;1.70;0.60;;;3.30;99.90;;;;;;5043884;28;20112;-63
2023/11/24 03:14:23;;;;;;;5.00;0.95;;;3.30;99.90;;;;;;5043682;28;20145;-61
2023/11/24 03:16:51;;;;;;;1.70;0.50;;;3.20;99.90;;;;;;5065507;28;20053;-62
2023/11/24 03:19:18;;;;;;;1.65;0.93;;;3.20;99.90;;;;;;5046432;28;20056;-61
2023/11/24 03:21:45;;;;;;;2.63;0.75;;;3.20;99.90;;;;;;5036789;28;20528;-62
2023/11/24 03:24:12;;;;;;;2.13;0.80;;;3.20;99.90;;;;;;5066020;28;20032;-61
2023/11/24 03:26:39;;;;;;;3.00;0.80;;;3.20;99.90;;;;;;5067871;28;20040;-61
2023/11/24 03:29:06;;;;;;;8.88;1.52;;;3.10;99.90;;;;;;5070690;28;20028;-62
2023/11/24 03:31:33;;;;;;;3.75;1.80;;;3.10;99.90;;;;;;5067982;28;20044;-60
2023/11/24 03:34:01;;;;;;;1.98;0.77;;;3.00;99.90;;;;;;5071145;28;20041;-61
2023/11/24 03:36:28;;;;;;;3.30;0.82;;;3.10;99.90;;;;;;5068962;28;20044;-60
2023/11/24 03:38:55;;;;;;;4.13;1.05;;;3.10;99.90;;;;;;5050982;28;20617;-63
2023/11/24 03:41:22;;;;;;;2.97;1.52;;;3.10;99.90;;;;;;5068389;28;20621;-60
2023/11/24 03:43:49;;;;;;;8.23;1.45;;;3.10;99.90;;;;;;5068093;28;20491;-60
2023/11/24 03:46:16;;;;;;;6.75;1.20;;;3.10;99.90;;;;;;5053120;28;20532;-62
2023/11/24 03:48:43;;;;;;;3.65;1.15;;;3.10;99.90;;;;;;5075291;28;20050;-68
2023/11/24 03:51:10;;;;;;;1.92;0.90;;;3.10;99.90;;;;;;5052053;28;20051;-61
2023/11/24 03:53:37;;;;;;;6.00;1.05;;;3.10;99.90;;;;;;5069509;28;20044;-61
2023/11/24 03:56:06;;;;;;;1.98;1.10;;;3.10;99.90;;;;;;5071153;28;20047;-64
2023/11/24 03:58:33;;;;;;;4.28;0.85;;;3.10;99.90;;;;;;5070269;28;20037;-61
2023/11/24 04:01:01;;;;;;;5.10;1.17;;;3.00;99.90;;;;;;5072633;28;20519;-60
2023/11/24 04:03:28;;;;;;;1.42;0.60;;;3.00;99.90;;;;;;5047648;28;20049;-63
2023/11/24 04:05:56;;;;;;;2.47;0.88;;;3.00;99.90;;;;;;5073353;28;20037;-60
2023/11/24 04:08:23;;;;;;;8.90;2.47;;;3.00;99.90;;;;;;5089515;28;20056;-60
2023/11/24 04:10:49;;;;;;;5.35;0.90;;;3.00;99.90;;;;;;5071556;28;20041;-65
2023/11/24 04:13:17;;;;;;;8.25;0.93;;;3.00;99.90;;;;;;5052702;28;20467;-61
2023/11/24 04:15:43;;;;;;;4.93;0.65;;;3.00;99.90;;;;;;5076598;28;20041;-60
2023/11/24 04:18:12;;;;;;;3.85;1.05;;;3.00;99.90;;;;;;5049362;28;20048;-61
2023/11/24 04:20:39;;;;;;;2.67;0.68;;;3.00;99.90;;;;;;5079004;28;20056;-61
2023/11/24 04:23:07;;;;;;;4.38;1.30;;;3.00;99.90;;;;;;5069669;28;20057;-63
2023/11/24 04:25:34;;;;;;;4.25;0.95;;;3.00;99.90;;;;;;5076688;28;20048;-61
2023/11/24 04:28:01;;;;;;;4.00;0.57;;;2.90;99.90;;;;;;5075074;28;20045;-64
2023/11/24 04:30:28;;;;;;;2.88;0.82;;;2.90;99.90;;;;;;5072556;28;20071;-60
2023/11/24 04:32:56;;;;;;;5.22;0.77;;;2.90;99.90;;;;;;5069281;28;20486;-61
2023/11/24 04:35:23;;;;;;;3.53;2.10;;;2.90;99.90;;;;;;5058566;28;20561;-66
2023/11/24 04:37:50;;;;;;;4.22;0.95;;;2.90;99.90;;;;;;5070905;28;20040;-61
2023/11/24 04:40:18;;;;;;;4.03;0.60;;;2.90;99.90;;;;;;5076779;28;20058;-62
2023/11/24 04:42:45;;;;;;;3.88;0.47;;;2.90;99.90;;;;;;5071088;28;20048;-61
2023/11/24 04:45:12;;;;;;;3.20;1.02;;;2.90;99.90;;;;;;5069724;28;20127;-61
2023/11/24 04:47:39;;;;;;;1.45;0.50;;;2.90;99.90;;;;;;5073741;28;20118;-60
2023/11/24 04:50:07;;;;;;;6.82;1.13;;;2.90;99.90;;;;;;5084332;28;20044;-61
2023/11/24 04:52:34;;;;;;;4.57;0.88;;;2.90;99.90;;;;;;5073138;28;20048;-61
2023/11/24 04:55:03;;;;;;;3.90;0.70;;;2.90;99.90;;;;;;5076870;28;20044;-62
2023/11/24 04:57:31;;;;;;;7.18;1.15;;;2.90;99.90;;;;;;5074597;28;20423;-61
2023/11/24 04:59:58;;;;;;;1.67;0.80;;;2.90;99.90;;;;;;5067290;28;20165;-62
2023/11/24 05:02:25;;;;;;;4.28;0.77;;;2.90;99.90;;;;;;5072072;28;20051;-61
2023/11/24 05:04:52;;;;;;;4.00;1.85;;;2.90;99.90;;;;;;5068831;28;20051;-62
2023/11/24 05:07:21;;;;;;;3.92;1.02;;;2.90;99.90;;;;;;5072915;28;20036;-61
2023/11/24 05:09:48;;;;;;;7.43;1.02;;;2.90;99.90;;;;;;5053859;28;20445;-61
2023/11/24 06:23:14;;;;;;;5.00;0.95;;;2.90;99.90;;;;;;5047418;28;20048;-62
2023/11/24 06:25:40;;;;;;;3.13;0.80;;;2.80;99.90;;;;;;5054740;28;20045;-61
2023/11/24 06:28:08;;;;;;;8.05;1.30;;;2.80;99.90;;;;;;5050708;28;20041;-61
2023/11/24 06:30:35;;;;;;;3.00;0.57;;;2.80;99.90;;;;;;5046627;28;20052;-63
2023/11/24 06:33:02;;;;;;;2.67;0.60;;;2.90;99.90;;;;;;5047177;28;20437;-61
2023/11/24 06:35:29;;;;;;;5.15;1.27;;;2.80;99.90;;;;;;5046388;28;20051;-61
2023/11/24 06:37:57;;;;;;;1.85;0.60;;;2.80;99.90;;;;;;5049561;28;20037;-65
2023/11/24 06:40:24;;;;;;;8.48;2.00;;;2.90;99.90;;;;;;5048299;28;20491;-61
2023/11/24 06:42:51;;;;;;;6.38;1.33;;;2.90;99.90;;;;;;5051330;28;21527;-65
2023/11/24 06:45:18;;;;;;;4.15;0.88;;;2.80;99.90;;;;;;5048530;28;20051;-66
2023/11/24 06:47:48;;;;;;;2.97;1.27;;;2.90;99.90;;;;;;5050546;28;20041;-63
2023/11/24 06:50:15;;;;;;;3.45;1.40;;;2.90;99.90;;;;;;5056869;28;20126;-63
2023/11/24 06:52:42;;;;;;;4.90;1.15;;;2.80;99.90;;;;;;5049442;28;20414;-63
2023/11/24 06:55:10;;;;;;;6.43;1.52;;;2.80;99.90;;;;;;5049973;28;20817;-62
2023/11/24 06:57:38;;;;;;;4.53;1.20;;;2.80;99.90;;;;;;5049513;28;20041;-63
2023/11/24 07:00:07;;;;;;;8.45;1.02;;;2.90;99.90;;;;;;5064510;28;20435;-63
2023/11/24 07:02:34;;;;;;;4.70;1.15;;;2.90;99.90;;;;;;5051358;28;20056;-61
2023/11/24 07:05:03;;;;;;;9.23;0.98;;;2.80;99.90;;;;;;5064004;28;20045;-62
2023/11/24 07:07:30;;;;;;;4.65;1.13;;;2.80;99.90;;;;;;5055749;28;20120;-61
2023/11/24 07:09:57;;;;;;;9.05;0.80;;;2.80;99.90;;;;;;5045433;28;20066;-61
2023/11/24 07:12:25;;;;;;;4.45;0.82;;;2.80;99.90;;;;;;5045652;28;20487;-61
2023/11/24 07:14:52;;;;;;;5.03;1.10;;;2.80;99.90;;;;;;5048923;28;20040;-61
2023/11/24 07:17:19;;;;;;;8.18;0.85;;;2.80;99.90;;;;;;5054376;28;20045;-61
2023/11/24 07:19:46;;;;;;;4.60;0.88;;;2.90;99.90;;;;;;5047751;28;20040;-63
2023/11/24 07:22:13;;;;;;;10.77;1.65;;;2.80;99.90;;;;;;5052165;28;20061;-61
2023/11/24 07:24:42;;;;;;;3.67;0.95;;;2.80;99.90;;;;;;5048335;28;20426;-62
2023/11/24 07:27:09;;;;;;;11.02;1.40;;;2.80;99.90;;;;;;5055228;28;20068;-62
2023/11/24 07:29:36;;;;;;;1.33;0.43;;;2.80;99.90;;;;;;5053255;28;20041;-61
2023/11/24 07:32:03;;;;;;;5.18;1.00;;;2.80;99.90;;;;;;5053011;28;20055;-65
2023/11/24 08:41:38;;;;;;;1.90;1.00;;;2.70;99.90;;;;;;5078553;27;20762;-64
2023/11/24 08:44:06;;;;;;;3.60;0.82;;;2.70;99.90;;;;;;5044503;28;20048;-65
2023/11/24 08:46:33;;;;;;;8.27;0.88;;;2.70;99.90;;;;;;5052634;28;20075;-63
2023/11/24 08:49:01;;;;;;;3.22;1.00;;;2.70;99.90;;;;;;5052122;28;20132;-62
2023/11/24 08:51:28;;;;;;;3.13;0.70;;;2.70;99.90;;;;;;5050706;28;20068;-62
2023/11/24 08:53:56;;;;;;;6.80;0.55;;;2.60;99.90;;;;;;5053774;28;20044;-61
2023/11/24 08:56:23;;;;;;;2.03;0.63;;;2.70;99.90;;;;;;5049949;28;20045;-62
2023/11/24 08:58:50;;;;;;;4.47;0.90;;;2.70;99.90;;;;;;5051765;28;20041;-63
2023/11/24 09:01:17;;;;;;;6.85;1.45;;;2.70;99.90;;;;;;5050965;28;20095;-63
2023/11/24 09:03:44;;;;;;;6.43;1.10;;;2.70;99.90;;;;;;5047811;28;20109;-62
2023/11/24 09:06:11;;;;;;;2.67;0.70;;;2.70;99.90;;;;;;5033914;28;20610;-62
2023/11/24 09:08:38;;;;;;;4.47;0.98;;;2.70;99.90;;;;;;5049145;28;20079;-61
2023/11/24 09:11:07;;;;;;;7.70;1.08;;;2.70;99.90;;;;;;5043381;28;20438;-62
2023/11/24 09:13:34;;;;;;;2.80;1.15;;;2.80;99.90;;;;;;5052952;28;20041;-64
2023/11/24 09:16:05;;;;;;;3.10;0.77;;;2.80;99.90;;;;;;5048994;28;20064;-63
2023/11/24 09:18:32;;;;;;;6.72;1.27;;;2.80;99.90;;;;;;5053140;28;20065;-63
2023/11/24 09:20:59;;;;;;;6.13;0.45;;;2.80;99.90;;;;;;5054478;28;20049;-61
2023/11/24 09:23:26;;;;;;;4.38;0.93;;;2.80;99.90;;;;;;5056308;28;20124;-62
2023/11/24 09:25:53;;;;;;;3.33;0.35;;;2.80;99.90;;;;;;5050111;28;20116;-63
2023/11/24 09:28:20;;;;;;;5.72;0.70;;;2.80;99.90;;;;;;5055447;28;20102;-63
2023/11/24 09:30:47;;;;;;;2.03;1.05;;;2.80;99.90;;;;;;5045931;28;20407;-63
2023/11/24 09:33:16;;;;;;;4.32;0.73;;;2.80;99.90;;;;;;5051293;28;20041;-61
2023/11/24 09:35:43;;;;;;;3.38;0.45;;;2.80;99.90;;;;;;5044717;28;20122;-63
2023/11/24 09:38:10;;;;;;;2.88;0.98;;;2.80;99.90;;;;;;5053957;28;20049;-62
2023/11/24 09:40:37;;;;;;;1.48;0.40;;;2.70;99.90;;;;;;5048231;28;20150;-62
2023/11/24 09:43:04;;;;;;;4.53;0.47;;;2.70;99.90;;;;;;5053799;28;20487;-62
2023/11/24 09:45:31;;;;;;;4.78;1.23;;;2.70;99.90;;;;;;5053629;28;20055;-62
2023/11/24 09:47:59;;;;;;;6.25;0.77;;;2.80;99.90;;;;;;5051336;28;20120;-63
2023/11/24 09:50:27;;;;;;;4.57;1.65;;;2.80;99.90;;;;;;5056423;28;20123;-62
2023/11/24 09:52:56;;;;;;;3.15;0.75;;;2.80;99.90;;;;;;5053892;28;20123;-65
2023/11/24 09:55:24;;;;;;;10.95;2.35;;;2.80;99.90;;;;;;5045151;28;20072;-63
2023/11/24 09:57:55;;;;;;;3.83;0.88;;;2.80;99.90;;;;;;5046443;28;20498;-62
2023/11/24 10:00:25;;;;;;;2.55;0.98;;;2.80;99.90;;;;;;5051354;28;20041;-64
2023/11/24 10:02:56;;;;;;;11.13;0.95;;;2.80;99.90;;;;;;5048419;28;20044;-62
2023/11/24 10:05:26;;;;;;;12.43;2.00;;;2.70;99.90;;;;;;5050102;28;20060;-64
2023/11/24 10:07:54;;;;;;;7.23;1.57;;;2.80;99.90;;;;;;5044941;28;20548;-69
2023/11/24 10:10:26;;;;;;;5.55;0.93;;;2.80;99.90;;;;;;5055820;28;20282;-62
2023/11/24 10:12:54;;;;;;;3.80;0.82;;;2.80;99.90;;;;;;5049186;28;20053;-62
2023/11/24 10:15:22;;;;;;;5.30;1.30;;;2.70;99.90;;;;;;5052167;28;20122;-64
2023/11/24 10:17:49;;;;;;;7.32;1.00;;;2.70;99.90;;;;;;5054686;28;20040;-64
2023/11/24 10:20:19;;;;;;;1.80;0.45;;;2.80;99.90;;;;;;5048753;28;20048;-63
2023/11/24 10:22:49;;;;;;;4.28;1.15;;;2.70;99.90;;;;;;5056376;28;20040;-62
2023/11/24 10:25:21;;;;;;;6.90;3.33;;;2.70;99.90;;;;;;5037121;28;20381;-63
2023/11/24 10:27:48;;;;;;;1.60;0.68;;;2.80;99.90;;;;;;5046570;28;20041;-62
2023/11/24 10:30:18;;;;;;;4.90;0.98;;;2.80;99.90;;;;;;5050618;28;20049;-64
2023/11/24 10:32:48;;;;;;;6.63;1.07;;;2.90;99.90;;;;;;5050699;28;20040;-63
2023/11/24 10:35:15;;;;;;;2.08;0.50;;;2.90;99.90;;;;;;5046871;28;20128;-62
2023/11/24 10:37:44;;;;;;;8.30;1.13;;;2.80;99.90;;;;;;5052092;28;20072;-63
2023/11/24 10:40:17;;;;;;;5.07;1.38;;;2.70;99.90;;;;;;5052634;28;20045;-62
2023/11/24 10:42:47;;;;;;;3.67;1.35;;;2.60;99.90;;;;;;5046391;28;20057;-63
2023/11/24 10:45:19;;;;;;;7.80;1.23;;;2.70;99.90;;;;;;5050579;28;20131;-62
2023/11/24 10:48:14;;;;;;;2.45;0.52;;;2.70;99.90;;;;;;5050786;28;20041;-65
2023/11/24 10:50:47;;;;;;;3.03;1.05;;;2.60;99.90;;;;;;5051168;28;20029;-62
2023/11/24 10:53:32;;;;;;;4.55;0.95;;;2.70;99.90;;;;;;5049165;28;20049;-62
2023/11/24 10:56:03;;;;;;;6.57;2.03;;;2.60;99.90;;;;;;5046443;28;20041;-64
2023/11/24 10:58:33;;;;;;;5.15;0.93;;;2.60;99.90;;;;;;5052313;28;20041;-63
2023/11/24 11:01:02;;;;;;;10.30;0.80;;;2.60;99.90;;;;;;5051503;28;20074;-64
2023/11/24 11:03:34;;;;;;;5.70;0.88;;;2.60;99.90;;;;;;5051168;28;20479;-62
2023/11/24 11:06:01;;;;;;;6.03;0.85;;;2.70;99.90;;;;;;5053905;28;20051;-67
2023/11/24 11:08:36;;;;;;;3.03;1.20;;;2.70;99.90;;;;;;5052623;28;20037;-62
2023/11/24 11:11:06;;;;;;;5.60;1.65;;;2.70;99.90;;;;;;5053899;28;20064;-63
2023/11/24 11:13:36;;;;;;;5.88;0.52;;;2.70;99.90;;;;;;5054554;28;20133;-63
2023/11/24 11:16:04;;;;;;;4.68;0.65;;;2.80;99.90;;;;;;5057437;28;20440;-63
2023/11/24 11:18:33;;;;;;;4.25;1.25;;;2.80;99.90;;;;;;5050735;28;20422;-62
2023/11/24 11:21:36;;;;;;;8.38;1.02;;;2.80;99.90;;;;;;5053664;28;20053;-63
2023/11/24 11:24:10;;;;;;;5.00;0.77;;;2.70;99.90;;;;;;5049878;28;20045;-64
2023/11/24 11:26:45;;;;;;;1.98;0.50;;;2.60;99.90;;;;;;5053310;28;20073;-63
2023/11/24 11:29:20;;;;;;;7.53;1.42;;;2.60;99.90;;;;;;5051217;28;20126;-68
2023/11/24 11:31:50;;;;;;;2.53;1.00;;;2.60;99.90;;;;;;5050910;28;20045;-63
2023/11/24 11:34:20;;;;;;;5.18;0.70;;;2.60;99.90;;;;;;5045738;28;20039;-68
2023/11/24 11:37:13;;;;;;;4.47;1.40;;;2.60;99.90;;;;;;5051266;28;20049;-65
2023/11/24 11:39:59;;;;;;;2.22;0.32;;;2.60;99.90;;;;;;5045656;28;20114;-62
2023/11/24 11:42:50;;;;;;;6.93;0.98;;;2.50;99.90;;;;;;5053679;28;20059;-63
2023/11/24 11:45:20;;;;;;;4.55;1.08;;;2.50;99.90;;;;;;5048426;28;20071;-63
2023/11/24 11:47:51;;;;;;;9.30;1.40;;;2.40;99.90;;;;;;5054349;28;20045;-65
2023/11/24 11:50:24;;;;;;;2.83;0.85;;;2.40;99.90;;;;;;5053334;28;20519;-63
2023/11/24 11:52:54;;;;;;;1.80;0.93;;;2.40;99.90;;;;;;5041423;28;20051;-66
2023/11/24 11:55:21;;;;;;;;;;;2.40;99.90;;;;;;5053937;28;20106;-65
2023/11/24 11:57:54;;;;;;;8.95;3.47;;;2.50;99.90;;;;;;5043004;28;19925;-65
2023/11/24 12:00:29;;;;;;;5.63;0.57;;;2.50;99.90;;;;;;5038993;28;21208;-65
2023/11/24 12:02:57;;;;;;;5.13;0.82;;;2.50;99.90;;;;;;5053836;28;20072;-63
2023/11/24 12:05:28;;;;;;;6.28;1.83;;;2.40;99.90;;;;;;5049929;28;20071;-64
2023/11/24 12:07:58;;;;;;;4.55;1.00;;;2.40;99.90;;;;;;5048521;28;20046;-64
2023/11/24 12:10:29;;;;;;;4.82;0.60;;;2.40;99.90;;;;;;5046486;28;20041;-63
2023/11/24 12:12:58;;;;;;;5.30;1.98;;;2.40;99.90;;;;;;5048713;28;20470;-63
2023/11/24 12:15:25;;;;;;;4.30;0.90;;;2.40;99.90;;;;;;5055883;28;20431;-62
2023/11/24 12:17:53;;;;;;;9.02;1.15;;;2.40;99.90;;;;;;5050240;28;20045;-63
2023/11/24 12:20:22;;;;;;;2.20;0.50;;;2.40;99.90;;;;;;5053773;28;20423;-64
2023/11/24 12:22:52;;;;;;;6.95;0.63;;;2.40;99.90;;;;;;5053356;28;20041;-66
2023/11/24 12:25:21;;;;;;;4.77;0.70;;;2.40;99.90;;;;;;5052200;28;20225;-64
2023/11/24 12:27:49;;;;;;;4.60;1.05;;;2.40;99.90;;;;;;5057070;28;20084;-63
2023/11/24 12:30:16;;;;;;;10.30;1.00;;;2.30;99.90;;;;;;5045534;28;20411;-62
2023/11/24 12:32:44;;;;;;;5.13;2.90;;;2.30;99.90;;;;;;5053524;28;20107;-64
2023/11/24 12:35:11;;;;;;;9.13;1.38;;;2.30;99.90;;;;;;5053536;28;20044;-63
2023/11/24 12:37:40;;;;;;;7.65;0.70;;;2.30;99.90;;;;;;5050514;28;20063;-62
2023/11/24 12:40:11;;;;;;;4.78;0.73;;;2.30;99.90;;;;;;5052054;28;20041;-63
2023/11/24 12:42:40;;;;;;;6.80;0.70;;;2.30;99.90;;;;;;5044583;28;20049;-65
2023/11/24 12:45:08;;;;;;;10.23;1.17;;;2.30;99.90;;;;;;5050306;28;20446;-63
2023/11/24 12:47:35;;;;;;;11.35;1.90;;;2.30;99.90;;;;;;5057421;28;20045;-62
2023/11/24 12:50:16;;;;;;;1.30;0.68;;;2.30;99.90;;;;;;5051845;28;20037;-65
2023/11/24 12:52:45;;;;;;;5.53;0.80;;;2.30;99.90;;;;;;5057039;28;20057;-63
2023/11/24 12:55:12;;;;;;;5.63;0.70;;;2.40;99.90;;;;;;5031160;28;20128;-65
2023/11/24 12:57:43;;;;;;;9.90;0.80;;;2.30;99.90;;;;;;5051201;28;20301;-64
2023/11/24 13:00:16;;;;;;;4.53;0.90;;;2.30;99.90;;;;;;5051951;28;20051;-64
2023/11/24 13:02:44;;;;;;;4.90;1.20;;;2.30;99.90;;;;;;5051784;28;20049;-66
2023/11/24 13:05:13;;;;;;;3.58;1.23;;;2.30;99.90;;;;;;5056182;28;20037;-64
2023/11/24 13:07:40;;;;;;;4.18;0.95;;;2.30;99.90;;;;;;5046300;28;20571;-63
2023/11/24 13:10:11;;;;;;;3.40;0.90;;;2.20;99.90;;;;;;5043285;28;20049;-64
2023/11/24 13:12:40;;;;;;;6.32;0.95;;;2.30;99.90;;;;;;5046576;28;20134;-62
2023/11/24 13:15:07;;;;;;;7.10;0.88;;;2.30;99.90;;;;;;5046274;28;20044;-64
2023/11/24 13:17:35;;;;;;;4.82;1.00;;;2.30;99.90;;;;;;5056262;28;20060;-64
2023/11/24 13:20:06;;;;;;;7.53;1.13;;;2.20;99.90;;;;;;5050495;28;20069;-64
2023/11/24 13:22:33;;;;;;;3.33;0.90;;;2.20;99.90;;;;;;5047940;28;20052;-62
2023/11/24 13:25:01;;;;;;;7.75;1.98;;;2.30;99.90;;;;;;5051843;28;20535;-62
2023/11/24 13:27:30;;;;;;;8.55;2.45;;;2.30;99.90;;;;;;5052174;28;20047;-62
2023/11/24 13:29:57;;;;;;;4.63;2.17;;;2.30;99.90;;;;;;5045848;28;20083;-65
2023/11/24 13:32:24;;;;;;;6.78;1.67;;;2.30;99.90;;;;;;5050942;28;20044;-62
2023/11/24 13:34:51;;;;;;;4.80;0.70;;;2.30;99.90;;;;;;5051565;28;20073;-65
2023/11/24 13:37:19;;;;;;;3.28;1.00;;;2.20;99.90;;;;;;5048537;28;20047;-67
2023/11/24 13:39:45;;;;;;;5.60;0.80;;;2.30;99.90;;;;;;5046320;28;20742;-63
2023/11/24 13:42:12;;;;;;;6.03;0.98;;;2.30;99.90;;;;;;5027766;28;20415;-63
2023/11/24 13:44:40;;;;;;;3.65;1.00;;;2.30;99.90;;;;;;5056312;28;20056;-65
2023/11/24 13:47:07;;;;;;;3.05;0.75;;;2.20;99.90;;;;;;5049038;28;20041;-63
2023/11/24 13:49:34;;;;;;;9.13;1.42;;;2.30;99.90;;;;;;5049394;28;20037;-62
2023/11/24 13:52:03;;;;;;;4.35;1.27;;;2.30;99.90;;;;;;5050089;28;20531;-65
2023/11/24 13:54:33;;;;;;;5.72;1.00;;;2.30;99.90;;;;;;5053336;28;20106;-63
2023/11/24 13:57:01;;;;;;;0.90;0.40;;;2.30;99.90;;;;;;5053943;28;20080;-65
2023/11/24 13:59:29;;;;;;;6.10;1.02;;;2.30;99.90;;;;;;5049315;28;20042;-63
2023/11/24 14:01:56;;;;;;;3.50;1.02;;;2.40;99.90;;;;;;5041663;28;20041;-68
2023/11/24 14:04:23;;;;;;;7.28;1.15;;;2.40;99.90;;;;;;5049779;28;20066;-64
2023/11/24 14:06:51;;;;;;;3.33;0.93;;;2.30;99.90;;;;;;5051380;28;20030;-66
2023/11/24 14:09:31;;;;;;;4.88;0.75;;;2.30;99.90;;;;;;5042368;28;20111;-64
2023/11/24 14:11:59;;;;;;;8.13;0.70;;;2.40;99.90;;;;;;5054962;28;20043;-62
2023/11/24 14:14:27;;;;;;;8.43;1.40;;;2.30;99.90;;;;;;5045959;28;20052;-63
2023/11/24 14:16:55;;;;;;;4.15;0.77;;;2.30;99.90;;;;;;5046380;28;20044;-62
2023/11/24 14:19:22;;;;;;;5.47;1.80;;;2.30;99.90;;;;;;5050404;28;20040;-63
2023/11/24 14:21:50;;;;;;;1.83;0.85;;;2.40;99.90;;;;;;5047688;28;20049;-63
2023/11/24 14:24:17;;;;;;;1.33;0.77;;;2.40;99.90;;;;;;5053353;28;20049;-62
2023/11/24 14:26:44;;;;;;;4.38;0.90;;;2.40;99.90;;;;;;5049699;28;20045;-64
2023/11/24 14:29:12;;;;;;;1.95;0.50;;;2.40;99.90;;;;;;5048141;28;20112;-64
2023/11/24 14:31:40;;;;;;;3.13;0.45;;;2.40;99.90;;;;;;5049518;28;20091;-64
2023/11/24 14:34:08;;;;;;;4.03;0.40;;;2.40;99.90;;;;;;5044260;28;20045;-63
2023/11/24 14:36:39;;;;;;;5.63;1.23;;;2.40;99.90;;;;;;5054293;28;20450;-63
2023/11/24 14:39:19;;;;;;;4.18;1.35;;;2.40;99.90;;;;;;5044488;28;20044;-69
2023/11/24 14:41:49;;;;;;;9.88;1.67;;;2.40;99.90;;;;;;5044984;28;20048;-62
2023/11/24 14:44:16;;;;;;;5.03;1.08;;;2.40;99.90;;;;;;5054327;28;20052;-63
2023/11/24 14:46:43;;;;;;;2.30;1.38;;;2.40;99.90;;;;;;5053506;28;20037;-65
2023/11/24 14:49:10;;;;;;;6.35;0.88;;;2.50;99.90;;;;;;5051895;28;20041;-62
2023/11/24 14:51:38;;;;;;;5.25;0.88;;;2.50;99.90;;;;;;5051839;28;20045;-62
2023/11/24 14:54:05;;;;;;;6.30;0.90;;;2.40;99.90;;;;;;5047935;28;20041;-64
2023/11/24 14:56:35;;;;;;;6.57;1.23;;;2.40;99.90;;;;;;5047950;28;20060;-65
2023/11/24 14:59:05;;;;;;;5.38;1.10;;;2.40;99.90;;;;;;5049145;28;20372;-64
2023/11/24 15:01:33;;;;;;;;;;;2.40;99.90;;;;;;5054183;28;20064;-65
2023/11/24 15:04:00;;;;;;;4.45;0.88;;;2.40;99.90;;;;;;5045580;28;19921;-64
2023/11/24 15:06:27;;;;;;;5.30;0.45;;;2.40;99.90;;;;;;5048810;28;20079;-63
2023/11/24 15:09:00;;;;;;;4.07;0.93;;;2.40;99.90;;;;;;5037999;28;20146;-64
2023/11/24 15:11:47;;;;;;;6.43;1.02;;;2.40;99.90;;;;;;5050400;28;20140;-62
2023/11/24 15:14:14;;;;;;;5.25;1.42;;;2.40;99.90;;;;;;5049075;28;20053;-63
2023/11/24 15:19:39;;;;;;;5.80;1.35;;;2.40;99.90;;;;;;5031739;28;20197;-62
2023/11/24 15:22:09;;;;;;;7.00;1.55;;;2.40;99.90;;;;;;5051139;28;20051;-62
2023/11/24 15:24:37;;;;;;;2.88;0.65;;;2.40;99.90;;;;;;5047548;28;20058;-62
2023/11/24 15:27:07;;;;;;;3.58;0.60;;;2.40;99.90;;;;;;5051765;28;20091;-63